sensor_id;sensor_type;location;lat;lon;timestamp;P1;durP1;ratioP1;P2;durP2;ratioP2
67941;SDS011;54731;42.600;23.476;2023-03-01T00:01:31;4.20;;;2.80;;
67941;SDS011;54731;42.600;23.476;2023-03-01T00:03:57;8.05;;;4.22;;
67941;SDS011;54731;42.600;23.476;2023-03-01T00:06:24;6.63;;;4.07;;
67941;SDS011;54731;42.600;23.476;2023-03-01T00:08:50;14.47;;;7.23;;
67941;SDS011;54731;42.600;23.476;2023-03-01T00:13:42;3.87;;;2.17;;
67941;SDS011;54731;42.600;23.476;2023-03-01T00:16:13;4.47;;;2.40;;
67941;SDS011;54731;42.600;23.476;2023-03-01T00:18:41;2.22;;;1.95;;
67941;SDS011;54731;42.600;23.476;2023-03-01T00:21:06;3.67;;;2.27;;
67941;SDS011;54731;42.600;23.476;2023-03-01T00:23:33;5.17;;;3.00;;
67941;SDS011;54731;42.600;23.476;2023-03-01T00:25:59;3.83;;;2.05;;
67941;SDS011;54731;42.600;23.476;2023-03-01T00:28:25;4.30;;;2.27;;
67941;SDS011;54731;42.600;23.476;2023-03-01T00:30:50;6.93;;;2.33;;
67941;SDS011;54731;42.600;23.476;2023-03-01T00:33:16;2.83;;;1.70;;
67941;SDS011;54731;42.600;23.476;2023-03-01T00:35:41;6.67;;;2.10;;
67941;SDS011;54731;42.600;23.476;2023-03-01T00:38:06;3.90;;;1.97;;
67941;SDS011;54731;42.600;23.476;2023-03-01T00:40:32;4.90;;;1.47;;
67941;SDS011;54731;42.600;23.476;2023-03-01T00:42:59;4.95;;;1.63;;
67941;SDS011;54731;42.600;23.476;2023-03-01T00:45:26;2.50;;;1.60;;
67941;SDS011;54731;42.600;23.476;2023-03-01T00:47:51;2.45;;;1.48;;
67941;SDS011;54731;42.600;23.476;2023-03-01T00:50:17;11.83;;;4.60;;
67941;SDS011;54731;42.600;23.476;2023-03-01T00:52:43;10.52;;;3.90;;
67941;SDS011;54731;42.600;23.476;2023-03-01T00:55:09;4.37;;;2.93;;
67941;SDS011;54731;42.600;23.476;2023-03-01T00:57:35;4.88;;;3.05;;
67941;SDS011;54731;42.600;23.476;2023-03-01T01:00:00;4.50;;;2.93;;
67941;SDS011;54731;42.600;23.476;2023-03-01T01:02:26;3.05;;;2.20;;
67941;SDS011;54731;42.600;23.476;2023-03-01T01:04:51;2.77;;;1.80;;
67941;SDS011;54731;42.600;23.476;2023-03-01T01:07:17;3.30;;;2.00;;
67941;SDS011;54731;42.600;23.476;2023-03-01T01:09:43;2.72;;;1.70;;
67941;SDS011;54731;42.600;23.476;2023-03-01T01:12:08;2.67;;;1.37;;
67941;SDS011;54731;42.600;23.476;2023-03-01T01:14:34;4.20;;;2.10;;
67941;SDS011;54731;42.600;23.476;2023-03-01T01:17:00;2.80;;;1.02;;
67941;SDS011;54731;42.600;23.476;2023-03-01T01:19:26;3.95;;;1.35;;
67941;SDS011;54731;42.600;23.476;2023-03-01T01:21:51;2.38;;;1.20;;
67941;SDS011;54731;42.600;23.476;2023-03-01T01:24:17;3.08;;;1.60;;
67941;SDS011;54731;42.600;23.476;2023-03-01T01:26:43;3.97;;;1.70;;
67941;SDS011;54731;42.600;23.476;2023-03-01T01:29:10;3.88;;;1.63;;
67941;SDS011;54731;42.600;23.476;2023-03-01T01:31:36;2.90;;;1.92;;
67941;SDS011;54731;42.600;23.476;2023-03-01T01:34:03;1.20;;;0.90;;
67941;SDS011;54731;42.600;23.476;2023-03-01T01:36:30;1.90;;;1.13;;
67941;SDS011;54731;42.600;23.476;2023-03-01T01:38:55;1.63;;;1.00;;
67941;SDS011;54731;42.600;23.476;2023-03-01T01:41:21;1.63;;;1.20;;
67941;SDS011;54731;42.600;23.476;2023-03-01T01:43:48;2.20;;;1.00;;
67941;SDS011;54731;42.600;23.476;2023-03-01T01:46:34;1.70;;;1.02;;
67941;SDS011;54731;42.600;23.476;2023-03-01T01:49:05;1.55;;;1.23;;
67941;SDS011;54731;42.600;23.476;2023-03-01T01:51:38;2.37;;;1.47;;
67941;SDS011;54731;42.600;23.476;2023-03-01T01:54:10;3.28;;;1.60;;
67941;SDS011;54731;42.600;23.476;2023-03-01T01:56:40;1.42;;;1.00;;
67941;SDS011;54731;42.600;23.476;2023-03-01T01:59:11;2.72;;;1.23;;
67941;SDS011;54731;42.600;23.476;2023-03-01T02:01:37;2.38;;;1.10;;
67941;SDS011;54731;42.600;23.476;2023-03-01T02:04:02;2.85;;;1.20;;
67941;SDS011;54731;42.600;23.476;2023-03-01T02:06:38;3.28;;;1.67;;
67941;SDS011;54731;42.600;23.476;2023-03-01T02:09:11;3.42;;;1.67;;
67941;SDS011;54731;42.600;23.476;2023-03-01T02:11:38;2.83;;;1.73;;
67941;SDS011;54731;42.600;23.476;2023-03-01T02:14:04;2.23;;;1.60;;
67941;SDS011;54731;42.600;23.476;2023-03-01T02:16:30;3.05;;;1.55;;
67941;SDS011;54731;42.600;23.476;2023-03-01T02:18:55;3.72;;;2.22;;
67941;SDS011;54731;42.600;23.476;2023-03-01T02:26:51;2.47;;;1.92;;
67941;SDS011;54731;42.600;23.476;2023-03-01T02:29:20;2.42;;;1.70;;
67941;SDS011;54731;42.600;23.476;2023-03-01T02:31:47;3.13;;;1.92;;
67941;SDS011;54731;42.600;23.476;2023-03-01T02:34:17;3.00;;;2.40;;
67941;SDS011;54731;42.600;23.476;2023-03-01T02:36:47;5.30;;;3.10;;
67941;SDS011;54731;42.600;23.476;2023-03-01T02:39:18;4.43;;;3.03;;
67941;SDS011;54731;42.600;23.476;2023-03-01T02:41:51;4.72;;;3.28;;
67941;SDS011;54731;42.600;23.476;2023-03-01T02:44:18;4.72;;;2.95;;
67941;SDS011;54731;42.600;23.476;2023-03-01T02:46:49;4.30;;;2.83;;
67941;SDS011;54731;42.600;23.476;2023-03-01T02:49:29;2.10;;;1.40;;
67941;SDS011;54731;42.600;23.476;2023-03-01T02:55:06;3.83;;;2.10;;
67941;SDS011;54731;42.600;23.476;2023-03-01T02:57:34;3.47;;;2.38;;
67941;SDS011;54731;42.600;23.476;2023-03-01T03:00:04;2.72;;;2.10;;
67941;SDS011;54731;42.600;23.476;2023-03-01T03:02:36;2.58;;;1.63;;
67941;SDS011;54731;42.600;23.476;2023-03-01T03:05:02;3.40;;;1.98;;
67941;SDS011;54731;42.600;23.476;2023-03-01T03:07:28;4.10;;;3.33;;
67941;SDS011;54731;42.600;23.476;2023-03-01T03:09:53;4.57;;;3.10;;
67941;SDS011;54731;42.600;23.476;2023-03-01T03:12:18;6.07;;;3.57;;
67941;SDS011;54731;42.600;23.476;2023-03-01T03:14:44;5.73;;;3.90;;
67941;SDS011;54731;42.600;23.476;2023-03-01T03:17:09;5.27;;;4.37;;
67941;SDS011;54731;42.600;23.476;2023-03-01T03:19:34;5.40;;;3.53;;
67941;SDS011;54731;42.600;23.476;2023-03-01T03:21:59;5.53;;;3.90;;
67941;SDS011;54731;42.600;23.476;2023-03-01T03:24:25;5.00;;;3.13;;
67941;SDS011;54731;42.600;23.476;2023-03-01T03:26:50;6.57;;;3.23;;
67941;SDS011;54731;42.600;23.476;2023-03-01T03:29:15;5.00;;;3.30;;
67941;SDS011;54731;42.600;23.476;2023-03-01T03:31:41;5.20;;;3.03;;
67941;SDS011;54731;42.600;23.476;2023-03-01T03:34:06;4.93;;;3.37;;
67941;SDS011;54731;42.600;23.476;2023-03-01T03:36:31;4.87;;;3.50;;
67941;SDS011;54731;42.600;23.476;2023-03-01T03:38:56;5.10;;;3.43;;
67941;SDS011;54731;42.600;23.476;2023-03-01T03:41:22;4.77;;;3.07;;
67941;SDS011;54731;42.600;23.476;2023-03-01T03:43:47;4.73;;;2.90;;
67941;SDS011;54731;42.600;23.476;2023-03-01T03:46:12;6.77;;;3.40;;
67941;SDS011;54731;42.600;23.476;2023-03-01T03:48:41;7.43;;;3.63;;
67941;SDS011;54731;42.600;23.476;2023-03-01T03:51:12;11.13;;;4.05;;
67941;SDS011;54731;42.600;23.476;2023-03-01T03:53:39;8.35;;;3.60;;
67941;SDS011;54731;42.600;23.476;2023-03-01T03:56:04;7.07;;;3.30;;
67941;SDS011;54731;42.600;23.476;2023-03-01T03:58:30;7.45;;;3.78;;
67941;SDS011;54731;42.600;23.476;2023-03-01T04:00:56;6.67;;;3.53;;
67941;SDS011;54731;42.600;23.476;2023-03-01T04:03:22;5.78;;;3.25;;
67941;SDS011;54731;42.600;23.476;2023-03-01T04:05:49;6.28;;;3.20;;
67941;SDS011;54731;42.600;23.476;2023-03-01T04:08:15;6.20;;;2.60;;
67941;SDS011;54731;42.600;23.476;2023-03-01T04:10:43;5.57;;;2.75;;
67941;SDS011;54731;42.600;23.476;2023-03-01T04:13:10;4.82;;;2.80;;
67941;SDS011;54731;42.600;23.476;2023-03-01T04:15:38;5.18;;;3.10;;
67941;SDS011;54731;42.600;23.476;2023-03-01T04:18:05;7.30;;;3.28;;
67941;SDS011;54731;42.600;23.476;2023-03-01T04:20:32;7.88;;;3.28;;
67941;SDS011;54731;42.600;23.476;2023-03-01T04:23:03;7.05;;;2.83;;
67941;SDS011;54731;42.600;23.476;2023-03-01T04:25:32;4.25;;;2.85;;
67941;SDS011;54731;42.600;23.476;2023-03-01T04:27:58;3.30;;;2.40;;
67941;SDS011;54731;42.600;23.476;2023-03-01T04:30:23;4.60;;;2.53;;
67941;SDS011;54731;42.600;23.476;2023-03-01T04:32:48;4.13;;;2.27;;
67941;SDS011;54731;42.600;23.476;2023-03-01T04:35:14;3.23;;;1.77;;
67941;SDS011;54731;42.600;23.476;2023-03-01T04:37:39;3.75;;;2.00;;
67941;SDS011;54731;42.600;23.476;2023-03-01T04:40:04;4.83;;;2.47;;
67941;SDS011;54731;42.600;23.476;2023-03-01T04:42:30;3.80;;;2.27;;
67941;SDS011;54731;42.600;23.476;2023-03-01T04:44:55;3.00;;;1.88;;
67941;SDS011;54731;42.600;23.476;2023-03-01T04:47:21;6.23;;;2.97;;
67941;SDS011;54731;42.600;23.476;2023-03-01T04:49:46;6.93;;;3.27;;
67941;SDS011;54731;42.600;23.476;2023-03-01T04:52:11;6.53;;;3.70;;
67941;SDS011;54731;42.600;23.476;2023-03-01T04:54:36;7.03;;;3.87;;
67941;SDS011;54731;42.600;23.476;2023-03-01T04:57:02;7.97;;;4.20;;
67941;SDS011;54731;42.600;23.476;2023-03-01T04:59:28;13.02;;;5.00;;
67941;SDS011;54731;42.600;23.476;2023-03-01T05:01:53;9.17;;;3.97;;
67941;SDS011;54731;42.600;23.476;2023-03-01T05:04:20;10.38;;;3.65;;
67941;SDS011;54731;42.600;23.476;2023-03-01T05:06:46;10.00;;;3.78;;
67941;SDS011;54731;42.600;23.476;2023-03-01T05:09:11;8.47;;;3.03;;
67941;SDS011;54731;42.600;23.476;2023-03-01T05:11:37;7.10;;;2.87;;
67941;SDS011;54731;42.600;23.476;2023-03-01T05:14:03;19.70;;;7.07;;
67941;SDS011;54731;42.600;23.476;2023-03-01T05:16:32;5.32;;;1.85;;
67941;SDS011;54731;42.600;23.476;2023-03-01T05:18:58;4.82;;;2.47;;
67941;SDS011;54731;42.600;23.476;2023-03-01T05:21:24;4.23;;;2.00;;
67941;SDS011;54731;42.600;23.476;2023-03-01T05:23:50;5.93;;;1.80;;
67941;SDS011;54731;42.600;23.476;2023-03-01T05:26:17;29.13;;;6.93;;
67941;SDS011;54731;42.600;23.476;2023-03-01T05:28:43;48.40;;;10.57;;
67941;SDS011;54731;42.600;23.476;2023-03-01T05:31:09;20.05;;;6.88;;
67941;SDS011;54731;42.600;23.476;2023-03-01T05:33:38;50.80;;;13.40;;
67941;SDS011;54731;42.600;23.476;2023-03-01T05:36:05;36.67;;;9.35;;
67941;SDS011;54731;42.600;23.476;2023-03-01T05:38:34;42.25;;;11.60;;
67941;SDS011;54731;42.600;23.476;2023-03-01T05:40:59;16.48;;;4.28;;
67941;SDS011;54731;42.600;23.476;2023-03-01T05:43:24;9.27;;;3.27;;
67941;SDS011;54731;42.600;23.476;2023-03-01T05:45:50;5.10;;;1.63;;
67941;SDS011;54731;42.600;23.476;2023-03-01T05:48:15;5.23;;;1.90;;
67941;SDS011;54731;42.600;23.476;2023-03-01T05:50:41;3.87;;;2.10;;
67941;SDS011;54731;42.600;23.476;2023-03-01T05:53:10;7.97;;;2.42;;
67941;SDS011;54731;42.600;23.476;2023-03-01T05:55:37;16.88;;;5.72;;
67941;SDS011;54731;42.600;23.476;2023-03-01T05:58:04;20.40;;;6.00;;
67941;SDS011;54731;42.600;23.476;2023-03-01T06:00:31;8.13;;;3.60;;
67941;SDS011;54731;42.600;23.476;2023-03-01T06:02:58;3.20;;;1.15;;
67941;SDS011;54731;42.600;23.476;2023-03-01T06:05:23;1.25;;;0.63;;
67941;SDS011;54731;42.600;23.476;2023-03-01T06:07:49;1.73;;;1.00;;
67941;SDS011;54731;42.600;23.476;2023-03-01T06:10:16;2.57;;;1.07;;
67941;SDS011;54731;42.600;23.476;2023-03-01T06:12:42;69.30;;;15.70;;
67941;SDS011;54731;42.600;23.476;2023-03-01T06:15:08;62.90;;;15.10;;
67941;SDS011;54731;42.600;23.476;2023-03-01T06:17:35;74.95;;;16.25;;
67941;SDS011;54731;42.600;23.476;2023-03-01T06:20:02;34.17;;;9.55;;
67941;SDS011;54731;42.600;23.476;2023-03-01T06:22:32;50.13;;;15.70;;
67941;SDS011;54731;42.600;23.476;2023-03-01T06:24:58;64.40;;;17.80;;
67941;SDS011;54731;42.600;23.476;2023-03-01T06:27:23;43.97;;;15.85;;
67941;SDS011;54731;42.600;23.476;2023-03-01T06:29:48;30.07;;;13.33;;
67941;SDS011;54731;42.600;23.476;2023-03-01T06:32:13;16.50;;;8.93;;
67941;SDS011;54731;42.600;23.476;2023-03-01T06:34:39;51.07;;;17.83;;
67941;SDS011;54731;42.600;23.476;2023-03-01T06:37:04;20.23;;;7.73;;
67941;SDS011;54731;42.600;23.476;2023-03-01T06:39:31;21.45;;;7.43;;
67941;SDS011;54731;42.600;23.476;2023-03-01T06:41:56;32.05;;;9.38;;
67941;SDS011;54731;42.600;23.476;2023-03-01T06:44:22;28.77;;;9.30;;
67941;SDS011;54731;42.600;23.476;2023-03-01T06:46:47;34.93;;;11.57;;
67941;SDS011;54731;42.600;23.476;2023-03-01T06:49:12;27.90;;;10.10;;
67941;SDS011;54731;42.600;23.476;2023-03-01T06:51:38;31.70;;;23.30;;
67941;SDS011;54731;42.600;23.476;2023-03-01T06:54:04;22.85;;;11.88;;
67941;SDS011;54731;42.600;23.476;2023-03-01T06:56:30;28.70;;;17.75;;
67941;SDS011;54731;42.600;23.476;2023-03-01T06:58:56;27.58;;;14.65;;
67941;SDS011;54731;42.600;23.476;2023-03-01T07:01:22;15.57;;;8.83;;
67941;SDS011;54731;42.600;23.476;2023-03-01T07:03:47;20.17;;;11.00;;
67941;SDS011;54731;42.600;23.476;2023-03-01T07:06:12;22.03;;;9.43;;
67941;SDS011;54731;42.600;23.476;2023-03-01T07:08:38;20.60;;;9.57;;
67941;SDS011;54731;42.600;23.476;2023-03-01T07:11:03;18.35;;;7.78;;
67941;SDS011;54731;42.600;23.476;2023-03-01T07:13:29;8.77;;;4.13;;
67941;SDS011;54731;42.600;23.476;2023-03-01T07:15:54;4.10;;;2.55;;
67941;SDS011;54731;42.600;23.476;2023-03-01T07:18:19;0.95;;;0.40;;
67941;SDS011;54731;42.600;23.476;2023-03-01T07:20:45;1.40;;;0.47;;
67941;SDS011;54731;42.600;23.476;2023-03-01T07:23:10;0.40;;;0.27;;
67941;SDS011;54731;42.600;23.476;2023-03-01T07:25:36;0.50;;;0.20;;
67941;SDS011;54731;42.600;23.476;2023-03-01T07:28:01;1.43;;;0.30;;
67941;SDS011;54731;42.600;23.476;2023-03-01T07:30:26;0.63;;;0.20;;
67941;SDS011;54731;42.600;23.476;2023-03-01T07:32:52;0.40;;;0.20;;
67941;SDS011;54731;42.600;23.476;2023-03-01T07:35:17;1.77;;;1.03;;
67941;SDS011;54731;42.600;23.476;2023-03-01T07:37:43;1.30;;;0.67;;
67941;SDS011;54731;42.600;23.476;2023-03-01T07:40:08;0.80;;;0.57;;
67941;SDS011;54731;42.600;23.476;2023-03-01T07:42:34;3.13;;;2.35;;
67941;SDS011;54731;42.600;23.476;2023-03-01T07:44:59;5.20;;;2.90;;
67941;SDS011;54731;42.600;23.476;2023-03-01T07:47:24;2.83;;;2.00;;
67941;SDS011;54731;42.600;23.476;2023-03-01T07:49:50;4.83;;;3.40;;
67941;SDS011;54731;42.600;23.476;2023-03-01T07:52:15;8.20;;;7.37;;
67941;SDS011;54731;42.600;23.476;2023-03-01T07:54:42;7.37;;;5.30;;
67941;SDS011;54731;42.600;23.476;2023-03-01T07:57:08;3.70;;;2.20;;
67941;SDS011;54731;42.600;23.476;2023-03-01T07:59:33;7.70;;;1.90;;
67941;SDS011;54731;42.600;23.476;2023-03-01T08:01:59;3.30;;;2.40;;
67941;SDS011;54731;42.600;23.476;2023-03-01T08:04:24;3.80;;;2.03;;
67941;SDS011;54731;42.600;23.476;2023-03-01T08:06:49;4.40;;;2.10;;
67941;SDS011;54731;42.600;23.476;2023-03-01T08:09:15;4.40;;;2.27;;
67941;SDS011;54731;42.600;23.476;2023-03-01T08:11:40;5.00;;;4.10;;
67941;SDS011;54731;42.600;23.476;2023-03-01T08:14:06;5.67;;;2.80;;
67941;SDS011;54731;42.600;23.476;2023-03-01T08:16:31;3.97;;;2.88;;
67941;SDS011;54731;42.600;23.476;2023-03-01T08:18:56;5.33;;;3.20;;
67941;SDS011;54731;42.600;23.476;2023-03-01T08:21:22;6.27;;;3.67;;
67941;SDS011;54731;42.600;23.476;2023-03-01T08:23:47;5.93;;;3.27;;
67941;SDS011;54731;42.600;23.476;2023-03-01T08:26:13;5.37;;;3.40;;
67941;SDS011;54731;42.600;23.476;2023-03-01T08:28:43;5.60;;;3.28;;
67941;SDS011;54731;42.600;23.476;2023-03-01T08:31:17;11.65;;;7.53;;
67941;SDS011;54731;42.600;23.476;2023-03-01T08:33:48;11.43;;;5.65;;
67941;SDS011;54731;42.600;23.476;2023-03-01T08:36:14;7.97;;;5.83;;
67941;SDS011;54731;42.600;23.476;2023-03-01T08:38:39;7.00;;;4.97;;
67941;SDS011;54731;42.600;23.476;2023-03-01T08:41:05;6.30;;;4.03;;
67941;SDS011;54731;42.600;23.476;2023-03-01T08:43:30;7.53;;;3.97;;
67941;SDS011;54731;42.600;23.476;2023-03-01T08:45:55;4.67;;;3.27;;
67941;SDS011;54731;42.600;23.476;2023-03-01T08:48:21;6.40;;;4.60;;
67941;SDS011;54731;42.600;23.476;2023-03-01T08:50:46;8.27;;;5.20;;
67941;SDS011;54731;42.600;23.476;2023-03-01T08:53:11;8.17;;;4.23;;
67941;SDS011;54731;42.600;23.476;2023-03-01T08:55:37;9.53;;;5.70;;
67941;SDS011;54731;42.600;23.476;2023-03-01T08:58:02;12.30;;;5.73;;
67941;SDS011;54731;42.600;23.476;2023-03-01T09:00:27;6.37;;;3.60;;
67941;SDS011;54731;42.600;23.476;2023-03-01T09:02:52;9.93;;;5.50;;
67941;SDS011;54731;42.600;23.476;2023-03-01T09:05:18;10.57;;;4.90;;
67941;SDS011;54731;42.600;23.476;2023-03-01T09:07:43;5.40;;;3.33;;
67941;SDS011;54731;42.600;23.476;2023-03-01T09:10:09;7.77;;;4.60;;
67941;SDS011;54731;42.600;23.476;2023-03-01T09:12:35;16.67;;;9.38;;
67941;SDS011;54731;42.600;23.476;2023-03-01T09:15:00;14.90;;;8.67;;
67941;SDS011;54731;42.600;23.476;2023-03-01T09:17:25;45.07;;;24.83;;
67941;SDS011;54731;42.600;23.476;2023-03-01T09:19:51;20.67;;;12.23;;
67941;SDS011;54731;42.600;23.476;2023-03-01T09:22:16;11.47;;;5.50;;
67941;SDS011;54731;42.600;23.476;2023-03-01T09:24:41;17.00;;;10.40;;
67941;SDS011;54731;42.600;23.476;2023-03-01T09:27:07;16.40;;;7.53;;
67941;SDS011;54731;42.600;23.476;2023-03-01T09:29:32;9.10;;;3.80;;
67941;SDS011;54731;42.600;23.476;2023-03-01T09:31:57;11.17;;;6.90;;
67941;SDS011;54731;42.600;23.476;2023-03-01T09:34:23;17.20;;;12.38;;
67941;SDS011;54731;42.600;23.476;2023-03-01T09:36:48;15.93;;;7.87;;
67941;SDS011;54731;42.600;23.476;2023-03-01T09:39:14;15.38;;;8.13;;
67941;SDS011;54731;42.600;23.476;2023-03-01T09:41:50;10.90;;;6.77;;
67941;SDS011;54731;42.600;23.476;2023-03-01T09:44:29;8.45;;;4.53;;
67941;SDS011;54731;42.600;23.476;2023-03-01T09:46:56;11.15;;;6.05;;
67941;SDS011;54731;42.600;23.476;2023-03-01T09:49:22;5.53;;;3.45;;
67941;SDS011;54731;42.600;23.476;2023-03-01T09:51:58;6.38;;;2.72;;
67941;SDS011;54731;42.600;23.476;2023-03-01T09:54:36;4.78;;;3.08;;
67941;SDS011;54731;42.600;23.476;2023-03-01T09:59:39;8.40;;;4.70;;
67941;SDS011;54731;42.600;23.476;2023-03-01T10:05:04;5.35;;;2.90;;
67941;SDS011;54731;42.600;23.476;2023-03-01T10:08:06;4.07;;;2.75;;
67941;SDS011;54731;42.600;23.476;2023-03-01T10:10:50;5.28;;;3.35;;
67941;SDS011;54731;42.600;23.476;2023-03-01T10:13:29;6.45;;;4.55;;
67941;SDS011;54731;42.600;23.476;2023-03-01T10:18:47;7.82;;;4.25;;
67941;SDS011;54731;42.600;23.476;2023-03-01T10:21:19;13.68;;;9.25;;
67941;SDS011;54731;42.600;23.476;2023-03-01T10:23:45;4.03;;;2.83;;
67941;SDS011;54731;42.600;23.476;2023-03-01T10:31:26;14.25;;;7.45;;
67941;SDS011;54731;42.600;23.476;2023-03-01T10:34:00;7.43;;;4.38;;
67941;SDS011;54731;42.600;23.476;2023-03-01T10:36:25;6.73;;;4.23;;
67941;SDS011;54731;42.600;23.476;2023-03-01T10:38:52;3.60;;;1.70;;
67941;SDS011;54731;42.600;23.476;2023-03-01T10:41:19;8.82;;;4.82;;
67941;SDS011;54731;42.600;23.476;2023-03-01T10:43:53;7.50;;;5.03;;
67941;SDS011;54731;42.600;23.476;2023-03-01T10:46:24;7.43;;;4.20;;
67941;SDS011;54731;42.600;23.476;2023-03-01T10:49:07;12.70;;;7.50;;
67941;SDS011;54731;42.600;23.476;2023-03-01T10:51:32;9.50;;;5.82;;
67941;SDS011;54731;42.600;23.476;2023-03-01T10:53:58;8.35;;;4.45;;
67941;SDS011;54731;42.600;23.476;2023-03-01T10:56:23;7.00;;;4.35;;
67941;SDS011;54731;42.600;23.476;2023-03-01T10:58:58;8.10;;;4.60;;
67941;SDS011;54731;42.600;23.476;2023-03-01T11:01:30;6.97;;;4.80;;
67941;SDS011;54731;42.600;23.476;2023-03-01T11:06:32;26.77;;;12.88;;
67941;SDS011;54731;42.600;23.476;2023-03-01T11:09:01;4.90;;;3.67;;
67941;SDS011;54731;42.600;23.476;2023-03-01T11:11:57;4.70;;;3.45;;
67941;SDS011;54731;42.600;23.476;2023-03-01T11:14:25;6.68;;;3.88;;
67941;SDS011;54731;42.600;23.476;2023-03-01T11:17:00;16.40;;;9.05;;
67941;SDS011;54731;42.600;23.476;2023-03-01T11:19:30;19.27;;;8.18;;
67941;SDS011;54731;42.600;23.476;2023-03-01T11:22:12;12.10;;;5.68;;
67941;SDS011;54731;42.600;23.476;2023-03-01T11:29:45;11.70;;;5.50;;
67941;SDS011;54731;42.600;23.476;2023-03-01T11:32:14;12.27;;;6.45;;
67941;SDS011;54731;42.600;23.476;2023-03-01T11:34:42;8.50;;;4.72;;
67941;SDS011;54731;42.600;23.476;2023-03-01T11:37:13;11.53;;;5.10;;
67941;SDS011;54731;42.600;23.476;2023-03-01T11:39:50;9.27;;;4.80;;
67941;SDS011;54731;42.600;23.476;2023-03-01T11:45:23;6.70;;;4.00;;
67941;SDS011;54731;42.600;23.476;2023-03-01T11:50:40;13.63;;;7.47;;
67941;SDS011;54731;42.600;23.476;2023-03-01T11:56:22;4.97;;;3.63;;
67941;SDS011;54731;42.600;23.476;2023-03-01T12:15:33;5.07;;;2.90;;
67941;SDS011;54731;42.600;23.476;2023-03-01T12:34:45;5.37;;;3.60;;
67941;SDS011;54731;42.600;23.476;2023-03-01T12:37:21;7.70;;;4.47;;
67941;SDS011;54731;42.600;23.476;2023-03-01T12:42:55;30.60;;;16.67;;
67941;SDS011;54731;42.600;23.476;2023-03-01T12:45:34;13.98;;;6.25;;
67941;SDS011;54731;42.600;23.476;2023-03-01T12:51:06;7.35;;;3.97;;
67941;SDS011;54731;42.600;23.476;2023-03-01T12:53:36;15.55;;;7.50;;
67941;SDS011;54731;42.600;23.476;2023-03-01T12:56:07;5.93;;;3.97;;
67941;SDS011;54731;42.600;23.476;2023-03-01T13:03:59;4.05;;;3.25;;
67941;SDS011;54731;42.600;23.476;2023-03-01T13:09:23;10.13;;;5.05;;
67941;SDS011;54731;42.600;23.476;2023-03-01T13:11:50;26.95;;;9.75;;
67941;SDS011;54731;42.600;23.476;2023-03-01T13:16:46;5.68;;;3.05;;
67941;SDS011;54731;42.600;23.476;2023-03-01T13:19:16;6.10;;;2.58;;
67941;SDS011;54731;42.600;23.476;2023-03-01T13:21:46;20.00;;;10.88;;
67941;SDS011;54731;42.600;23.476;2023-03-01T13:29:52;12.68;;;6.20;;
67941;SDS011;54731;42.600;23.476;2023-03-01T13:32:25;7.53;;;4.32;;
67941;SDS011;54731;42.600;23.476;2023-03-01T13:34:55;8.15;;;5.55;;
67941;SDS011;54731;42.600;23.476;2023-03-01T13:37:23;22.83;;;14.88;;
67941;SDS011;54731;42.600;23.476;2023-03-01T13:39:50;7.57;;;4.43;;
67941;SDS011;54731;42.600;23.476;2023-03-01T13:45:01;4.45;;;2.40;;
67941;SDS011;54731;42.600;23.476;2023-03-01T13:47:27;17.42;;;8.43;;
67941;SDS011;54731;42.600;23.476;2023-03-01T13:50:00;19.47;;;10.13;;
67941;SDS011;54731;42.600;23.476;2023-03-01T13:54:52;119.10;;;49.73;;
67941;SDS011;54731;42.600;23.476;2023-03-01T13:57:20;218.32;;;96.20;;
67941;SDS011;54731;42.600;23.476;2023-03-01T13:59:49;89.80;;;39.75;;
67941;SDS011;54731;42.600;23.476;2023-03-01T14:02:14;78.20;;;30.07;;
67941;SDS011;54731;42.600;23.476;2023-03-01T14:04:41;77.15;;;35.03;;
67941;SDS011;54731;42.600;23.476;2023-03-01T14:09:49;34.60;;;15.68;;
67941;SDS011;54731;42.600;23.476;2023-03-01T14:12:26;88.25;;;35.78;;
67941;SDS011;54731;42.600;23.476;2023-03-01T14:15:29;74.10;;;32.75;;
67941;SDS011;54731;42.600;23.476;2023-03-01T14:18:04;36.15;;;15.45;;
67941;SDS011;54731;42.600;23.476;2023-03-01T14:20:49;22.42;;;10.90;;
67941;SDS011;54731;42.600;23.476;2023-03-01T14:23:15;25.97;;;11.97;;
67941;SDS011;54731;42.600;23.476;2023-03-01T14:25:50;14.68;;;7.07;;
67941;SDS011;54731;42.600;23.476;2023-03-01T14:30:44;35.60;;;17.80;;
67941;SDS011;54731;42.600;23.476;2023-03-01T14:33:24;22.77;;;11.20;;
67941;SDS011;54731;42.600;23.476;2023-03-01T14:35:54;24.25;;;14.65;;
67941;SDS011;54731;42.600;23.476;2023-03-01T14:38:28;34.53;;;20.10;;
67941;SDS011;54731;42.600;23.476;2023-03-01T14:40:57;16.95;;;9.38;;
67941;SDS011;54731;42.600;23.476;2023-03-01T14:43:25;16.25;;;10.80;;
67941;SDS011;54731;42.600;23.476;2023-03-01T14:45:50;23.87;;;15.30;;
67941;SDS011;54731;42.600;23.476;2023-03-01T14:48:16;11.50;;;6.45;;
67941;SDS011;54731;42.600;23.476;2023-03-01T14:50:43;31.63;;;17.67;;
67941;SDS011;54731;42.600;23.476;2023-03-01T14:53:20;20.95;;;9.43;;
67941;SDS011;54731;42.600;23.476;2023-03-01T14:55:50;21.05;;;10.88;;
67941;SDS011;54731;42.600;23.476;2023-03-01T14:58:20;10.57;;;5.22;;
67941;SDS011;54731;42.600;23.476;2023-03-01T15:00:50;4.80;;;2.25;;
67941;SDS011;54731;42.600;23.476;2023-03-01T15:03:24;5.07;;;3.10;;
67941;SDS011;54731;42.600;23.476;2023-03-01T15:05:50;13.60;;;9.98;;
67941;SDS011;54731;42.600;23.476;2023-03-01T15:08:21;4.13;;;2.83;;
67941;SDS011;54731;42.600;23.476;2023-03-01T15:11:24;11.68;;;4.25;;
67941;SDS011;54731;42.600;23.476;2023-03-01T15:13:41;8.88;;;4.30;;
67941;SDS011;54731;42.600;23.476;2023-03-01T15:18:36;19.60;;;12.93;;
67941;SDS011;54731;42.600;23.476;2023-03-01T15:21:06;6.85;;;3.80;;
67941;SDS011;54731;42.600;23.476;2023-03-01T15:23:39;7.75;;;4.80;;
67941;SDS011;54731;42.600;23.476;2023-03-01T15:26:05;8.50;;;4.80;;
67941;SDS011;54731;42.600;23.476;2023-03-01T15:28:32;7.17;;;3.63;;
67941;SDS011;54731;42.600;23.476;2023-03-01T15:31:21;7.75;;;2.95;;
67941;SDS011;54731;42.600;23.476;2023-03-01T15:33:49;5.13;;;2.45;;
67941;SDS011;54731;42.600;23.476;2023-03-01T15:38:55;13.63;;;5.70;;
67941;SDS011;54731;42.600;23.476;2023-03-01T15:41:23;41.80;;;25.90;;
67941;SDS011;54731;42.600;23.476;2023-03-01T15:43:53;7.47;;;3.60;;
67941;SDS011;54731;42.600;23.476;2023-03-01T15:46:30;9.15;;;4.20;;
67941;SDS011;54731;42.600;23.476;2023-03-01T15:49:04;12.38;;;6.10;;
67941;SDS011;54731;42.600;23.476;2023-03-01T15:51:34;3.72;;;2.13;;
67941;SDS011;54731;42.600;23.476;2023-03-01T15:54:05;16.98;;;6.93;;
67941;SDS011;54731;42.600;23.476;2023-03-01T15:56:37;16.97;;;5.30;;
67941;SDS011;54731;42.600;23.476;2023-03-01T15:59:02;7.00;;;3.70;;
67941;SDS011;54731;42.600;23.476;2023-03-01T16:01:28;8.48;;;4.25;;
67941;SDS011;54731;42.600;23.476;2023-03-01T16:03:54;4.60;;;2.30;;
67941;SDS011;54731;42.600;23.476;2023-03-01T16:06:19;7.47;;;3.50;;
67941;SDS011;54731;42.600;23.476;2023-03-01T16:08:44;6.80;;;3.50;;
67941;SDS011;54731;42.600;23.476;2023-03-01T16:11:14;4.00;;;2.30;;
67941;SDS011;54731;42.600;23.476;2023-03-01T16:13:42;3.78;;;2.13;;
67941;SDS011;54731;42.600;23.476;2023-03-01T16:16:09;6.50;;;2.75;;
67941;SDS011;54731;42.600;23.476;2023-03-01T16:18:36;5.85;;;3.33;;
67941;SDS011;54731;42.600;23.476;2023-03-01T16:21:01;10.38;;;2.95;;
67941;SDS011;54731;42.600;23.476;2023-03-01T16:23:26;4.33;;;2.77;;
67941;SDS011;54731;42.600;23.476;2023-03-01T16:25:51;3.40;;;1.70;;